Time;durP1;ratioP1;P1;durP2;ratioP2;P2;SDS_P1;SDS_P2;PMS_P1;PMS_P2;Temp;Humidity;BMP_temperature;BMP_pressure;BME280_temperature;BME280_humidity;BME280_pressure;Samples;Min_cycle;Max_cycle;Signal;HPM_P1;HPM_P2
2023/10/30 00:00:29;;;;;;;9.30;4.70;;;;;;;;;;5057792;28;20032;-74
2023/10/30 00:02:56;;;;;;;7.63;4.90;;;;;;;;;;5053238;28;20130;-74
2023/10/30 00:05:23;;;;;;;7.20;5.17;;;;;;;;;;5010554;28;20070;-74
2023/10/30 00:07:50;;;;;;;7.67;5.20;;;;;;;;;;5009268;28;20141;-74
2023/10/30 00:10:16;;;;;;;7.37;4.70;;;;;;;;;;4939217;28;20119;-75
2023/10/30 00:12:42;;;;;;;8.50;5.40;;;;;;;;;;4939034;28;20062;-74
2023/10/30 00:15:08;;;;;;;10.17;5.47;;;;;;;;;;4939031;28;20162;-74
2023/10/30 00:17:34;;;;;;;7.73;5.03;;;;;;;;;;4955289;28;20134;-75
2023/10/30 00:20:00;;;;;;;8.03;5.50;;;;;;;;;;4939177;28;20154;-74
2023/10/30 00:22:25;;;;;;;8.77;5.33;;;;;;;;;;4939402;28;20082;-76
2023/10/30 00:24:51;;;;;;;8.87;5.07;;;;;;;;;;4955396;28;20096;-75
2023/10/30 00:27:17;;;;;;;7.63;5.30;;;;;;;;;;4938845;28;20429;-72
2023/10/30 00:29:44;;;;;;;7.10;5.27;;;;;;;;;;4954887;28;20117;-72
2023/10/30 00:32:10;;;;;;;7.43;5.37;;;;;;;;;;4954581;28;20043;-72
2023/10/30 00:34:35;;;;;;;10.07;5.80;;;;;;;;;;4985525;28;20049;-72
2023/10/30 00:37:02;;;;;;;8.93;5.17;;;;;;;;;;4977842;28;20128;-72
2023/10/30 00:39:31;;;;;;;8.37;5.43;;;;;;;;;;4977715;28;20033;-72
2023/10/30 00:41:59;;;;;;;7.03;4.67;;;;;;;;;;5008681;28;20130;-72
2023/10/30 00:44:27;;;;;;;7.20;4.93;;;;;;;;;;5049282;28;20036;-72
2023/10/30 00:46:54;;;;;;;10.63;5.13;;;;;;;;;;5016910;28;20380;-72
2023/10/30 00:49:22;;;;;;;8.17;4.47;;;;;;;;;;5046764;28;20059;-72
2023/10/30 00:51:48;;;;;;;7.47;5.40;;;;;;;;;;5052793;28;20186;-72
2023/10/30 00:54:15;;;;;;;7.63;4.57;;;;;;;;;;5036410;28;20044;-72
2023/10/30 00:56:42;;;;;;;7.37;4.83;;;;;;;;;;5036243;28;20047;-72
2023/10/30 00:59:08;;;;;;;8.73;5.00;;;;;;;;;;5036213;28;20379;-72
2023/10/30 01:01:34;;;;;;;7.43;4.60;;;;;;;;;;5020063;28;20371;-72
2023/10/30 01:04:00;;;;;;;8.53;4.70;;;;;;;;;;5019542;28;20040;-72
2023/10/30 01:06:26;;;;;;;5.83;4.13;;;;;;;;;;5035875;28;20063;-72
2023/10/30 01:08:52;;;;;;;8.70;4.60;;;;;;;;;;5019638;28;20032;-72
2023/10/30 01:11:17;;;;;;;6.47;4.53;;;;;;;;;;5019924;28;20059;-72
2023/10/30 01:13:44;;;;;;;6.73;4.17;;;;;;;;;;5069412;28;20152;-72
2023/10/30 01:16:10;;;;;;;6.27;4.37;;;;;;;;;;5052628;28;20036;-73
2023/10/30 01:18:37;;;;;;;6.43;4.50;;;;;;;;;;5020659;28;20491;-74
2023/10/30 01:21:07;;;;;;;5.87;4.20;;;;;;;;;;5023252;28;20128;-74
2023/10/30 01:23:33;;;;;;;5.32;4.03;;;;;;;;;;5070145;28;20051;-74
2023/10/30 01:25:59;;;;;;;5.70;4.10;;;;;;;;;;5055805;28;20048;-75
2023/10/30 01:28:25;;;;;;;8.93;4.10;;;;;;;;;;5039599;28;20486;-75
2023/10/30 01:30:51;;;;;;;6.73;4.63;;;;;;;;;;5056720;28;20510;-74
2023/10/30 01:33:19;;;;;;;6.77;4.23;;;;;;;;;;5039806;28;20032;-74
2023/10/30 01:35:45;;;;;;;5.80;4.10;;;;;;;;;;5056414;28;20147;-74
2023/10/30 01:38:11;;;;;;;6.13;3.83;;;;;;;;;;5039678;28;20043;-74
2023/10/30 01:40:45;;;;;;;7.40;4.20;;;;;;;;;;5039238;28;20052;-74
2023/10/30 01:43:11;;;;;;;7.07;4.33;;;;;;;;;;5055762;28;20594;-73
2023/10/30 01:45:36;;;;;;;6.30;3.90;;;;;;;;;;5055788;28;20048;-73
2023/10/30 01:48:02;;;;;;;7.03;4.07;;;;;;;;;;5039094;28;20449;-73
2023/10/30 01:50:28;;;;;;;7.57;4.60;;;;;;;;;;5038962;28;20047;-73
2023/10/30 01:52:54;;;;;;;5.60;4.30;;;;;;;;;;5038824;28;20432;-74
2023/10/30 01:55:20;;;;;;;13.97;5.10;;;;;;;;;;5039145;28;20075;-72
2023/10/30 01:57:46;;;;;;;5.63;3.83;;;;;;;;;;5069866;28;20079;-73
2023/10/30 02:00:12;;;;;;;5.70;4.30;;;;;;;;;;5059860;28;20067;-74
2023/10/30 02:02:41;;;;;;;6.40;4.63;;;;;;;;;;5060073;28;20028;-75
2023/10/30 02:05:08;;;;;;;8.17;4.97;;;;;;;;;;5059735;28;20062;-76
2023/10/30 02:07:35;;;;;;;5.23;3.87;;;;;;;;;;5038739;28;20135;-74
2023/10/30 02:10:05;;;;;;;7.10;5.00;;;;;;;;;;5038727;28;20090;-75
2023/10/30 02:12:34;;;;;;;6.73;4.83;;;;;;;;;;5038917;28;20041;-75
2023/10/30 02:15:01;;;;;;;7.53;4.67;;;;;;;;;;5038713;28;20070;-76
2023/10/30 02:17:32;;;;;;;;;;;;;;;;;;5039549;28;20041;-75
2023/10/30 02:19:57;;;;;;;9.20;4.73;;;;;;;;;;5055287;28;19919;-75
2023/10/30 02:22:23;;;;;;;5.87;4.27;;;;;;;;;;4995802;28;20041;-75
2023/10/30 02:24:48;;;;;;;8.73;4.83;;;;;;;;;;4979638;28;20114;-75
2023/10/30 02:27:17;;;;;;;7.77;4.70;;;;;;;;;;4995791;28;20480;-75
2023/10/30 02:29:44;;;;;;;9.30;4.83;;;;;;;;;;4963275;28;20100;-75
2023/10/30 02:32:10;;;;;;;10.30;5.07;;;;;;;;;;4979354;28;20188;-75
2023/10/30 02:34:37;;;;;;;11.63;4.80;;;;;;;;;;4979802;28;20447;-75
2023/10/30 02:37:06;;;;;;;8.63;5.17;;;;;;;;;;4979270;28;20077;-75
2023/10/30 02:39:34;;;;;;;8.73;5.47;;;;;;;;;;5032434;28;20060;-77
2023/10/30 02:42:01;;;;;;;6.60;4.43;;;;;;;;;;5020071;28;20037;-76
2023/10/30 02:44:29;;;;;;;6.27;4.67;;;;;;;;;;5020741;28;20119;-75
2023/10/30 02:46:55;;;;;;;7.27;4.57;;;;;;;;;;5036656;28;20048;-76
2023/10/30 02:49:25;;;;;;;8.30;5.37;;;;;;;;;;4995909;28;20068;-75
2023/10/30 02:51:52;;;;;;;7.83;5.17;;;;;;;;;;4995450;28;20462;-76
2023/10/30 02:54:22;;;;;;;17.13;5.40;;;;;;;;;;5030329;28;20060;-75
2023/10/30 02:56:48;;;;;;;7.28;5.10;;;;;;;;;;5021969;28;20091;-76
2023/10/30 02:59:14;;;;;;;8.03;5.00;;;;;;;;;;5037898;28;20506;-76
2023/10/30 03:01:41;;;;;;;7.60;4.80;;;;;;;;;;5038362;28;20136;-73
2023/10/30 03:04:09;;;;;;;9.33;5.37;;;;;;;;;;5071940;28;20094;-73
2023/10/30 03:06:36;;;;;;;11.23;5.30;;;;;;;;;;5034006;28;20088;-73
2023/10/30 03:09:01;;;;;;;9.27;5.00;;;;;;;;;;5001902;28;20514;-72
2023/10/30 03:11:27;;;;;;;9.50;5.57;;;;;;;;;;5018157;28;20060;-73
2023/10/30 03:13:53;;;;;;;8.93;5.10;;;;;;;;;;5034846;28;20120;-74
2023/10/30 03:16:24;;;;;;;9.23;5.27;;;;;;;;;;5035099;28;20451;-73
2023/10/30 03:18:50;;;;;;;11.60;5.07;;;;;;;;;;5017886;28;20415;-73
2023/10/30 03:21:16;;;;;;;9.37;5.77;;;;;;;;;;5014110;28;20076;-69
2023/10/30 03:23:42;;;;;;;9.00;5.80;;;;;;;;;;4997924;28;20110;-72
2023/10/30 03:26:08;;;;;;;8.83;5.43;;;;;;;;;;4981933;28;20172;-72
2023/10/30 03:28:35;;;;;;;12.47;5.43;;;;;;;;;;5030528;28;20170;-71
2023/10/30 03:31:07;;;;;;;8.53;5.43;;;;;;;;;;4997909;28;20063;-69
2023/10/30 03:33:33;;;;;;;9.20;5.87;;;;;;;;;;5030735;28;20064;-71
2023/10/30 03:35:59;;;;;;;12.33;5.80;;;;;;;;;;5014282;28;20096;-73
2023/10/30 03:38:25;;;;;;;8.73;5.70;;;;;;;;;;5016586;28;20045;-75
2023/10/30 03:40:50;;;;;;;10.77;7.50;;;;;;;;;;5018927;28;20175;-77
2023/10/30 03:43:16;;;;;;;13.37;7.53;;;;;;;;;;5042731;28;20474;-73
2023/10/30 03:45:44;;;;;;;13.40;6.80;;;;;;;;;;5073521;28;20032;-73
2023/10/30 03:48:11;;;;;;;14.20;6.13;;;;;;;;;;5028992;28;20066;-74
2023/10/30 03:50:38;;;;;;;10.47;6.10;;;;;;;;;;5048950;28;20039;-74
2023/10/30 03:53:06;;;;;;;11.57;6.83;;;;;;;;;;5081385;28;20070;-73
2023/10/30 03:55:32;;;;;;;11.80;6.73;;;;;;;;;;5076841;28;20105;-72
2023/10/30 03:57:58;;;;;;;12.37;6.70;;;;;;;;;;5070974;28;20474;-71
2023/10/30 04:00:24;;;;;;;12.23;6.57;;;;;;;;;;5085812;28;20028;-72
2023/10/30 04:02:50;;;;;;;12.40;7.00;;;;;;;;;;5086516;28;20032;-72
2023/10/30 04:05:17;;;;;;;10.60;6.47;;;;;;;;;;5086907;28;20389;-74
2023/10/30 04:07:43;;;;;;;11.63;6.70;;;;;;;;;;5083773;28;20089;-71
2023/10/30 04:10:08;;;;;;;10.97;6.57;;;;;;;;;;5074648;28;20129;-73
2023/10/30 04:12:35;;;;;;;10.57;6.30;;;;;;;;;;5069398;28;20056;-73
2023/10/30 04:15:00;;;;;;;10.90;6.57;;;;;;;;;;5036239;28;20052;-76
2023/10/30 04:17:26;;;;;;;11.97;5.73;;;;;;;;;;5025334;28;20063;-72
2023/10/30 04:23:07;;;;;;;11.17;6.30;;;;;;;;;;5063471;28;20127;-73
2023/10/30 04:25:33;;;;;;;13.03;6.37;;;;;;;;;;5038391;28;20147;-72
2023/10/30 04:27:59;;;;;;;12.30;6.50;;;;;;;;;;5037554;28;20093;-70
2023/10/30 04:30:25;;;;;;;10.13;5.93;;;;;;;;;;5022033;28;20421;-72
2023/10/30 04:32:51;;;;;;;12.50;6.87;;;;;;;;;;4995054;28;20041;-76
2023/10/30 04:35:17;;;;;;;11.13;5.77;;;;;;;;;;5007569;28;20383;-76
2023/10/30 04:37:43;;;;;;;13.17;6.90;;;;;;;;;;5007945;28;20136;-78
2023/10/30 04:40:09;;;;;;;13.50;7.23;;;;;;;;;;4987726;28;20056;-78
2023/10/30 04:42:35;;;;;;;11.60;6.80;;;;;;;;;;4970311;28;20125;-78
2023/10/30 04:45:02;;;;;;;14.13;7.57;;;;;;;;;;4984455;28;20042;-76
2023/10/30 04:47:31;;;;;;;13.03;6.87;;;;;;;;;;4985300;28;20211;-76
2023/10/30 04:49:57;;;;;;;13.87;6.80;;;;;;;;;;4981866;28;20314;-78
2023/10/30 04:52:25;;;;;;;12.70;6.67;;;;;;;;;;4923867;29;20478;-78
2023/10/30 04:54:51;;;;;;;14.07;7.63;;;;;;;;;;4936669;29;20113;-76
2023/10/30 04:57:18;;;;;;;12.27;7.10;;;;;;;;;;4953828;29;20051;-75
2023/10/30 04:59:44;;;;;;;15.03;6.87;;;;;;;;;;4923529;29;20125;-76
2023/10/30 05:02:11;;;;;;;10.43;5.53;;;;;;;;;;4922986;29;20490;-76
2023/10/30 05:04:36;;;;;;;10.47;6.33;;;;;;;;;;4919400;29;20051;-76
2023/10/30 05:07:04;;;;;;;11.87;7.10;;;;;;;;;;4940687;28;20074;-76
2023/10/30 05:09:30;;;;;;;12.07;6.67;;;;;;;;;;4940784;28;20516;-76
2023/10/30 05:11:57;;;;;;;12.20;7.00;;;;;;;;;;4990484;28;20423;-75
2023/10/30 05:14:23;;;;;;;11.70;6.20;;;;;;;;;;5000307;28;20045;-76
2023/10/30 05:16:50;;;;;;;10.17;5.53;;;;;;;;;;5003572;28;20041;-76
2023/10/30 05:19:15;;;;;;;10.43;6.33;;;;;;;;;;4984082;28;20037;-76
2023/10/30 05:21:41;;;;;;;10.40;7.20;;;;;;;;;;4984618;28;20084;-76
2023/10/30 05:24:07;;;;;;;10.13;6.43;;;;;;;;;;5032732;28;20062;-76
2023/10/30 05:26:32;;;;;;;12.90;6.87;;;;;;;;;;5044186;28;20098;-76
2023/10/30 05:29:00;;;;;;;15.83;7.27;;;;;;;;;;5079993;28;20466;-76
2023/10/30 05:31:26;;;;;;;13.07;7.17;;;;;;;;;;5049122;28;20032;-76
2023/10/30 05:33:51;;;;;;;13.17;7.20;;;;;;;;;;5066208;28;20153;-76
2023/10/30 05:36:17;;;;;;;16.00;7.03;;;;;;;;;;5077771;28;20184;-77
2023/10/30 05:38:43;;;;;;;12.50;6.90;;;;;;;;;;5087427;28;20027;-76
2023/10/30 05:41:08;;;;;;;13.03;6.90;;;;;;;;;;5103372;28;20027;-74
2023/10/30 05:43:35;;;;;;;13.73;7.17;;;;;;;;;;5097723;28;20131;-76
2023/10/30 05:46:02;;;;;;;12.93;6.70;;;;;;;;;;5097666;28;20027;-76
2023/10/30 05:48:28;;;;;;;11.83;5.70;;;;;;;;;;5080611;28;20039;-76
2023/10/30 05:50:53;;;;;;;10.90;6.03;;;;;;;;;;5080369;28;20039;-76
2023/10/30 05:53:19;;;;;;;11.67;7.20;;;;;;;;;;5080566;28;20075;-76
2023/10/30 05:55:45;;;;;;;12.90;6.27;;;;;;;;;;5080485;28;20070;-76
2023/10/30 05:58:12;;;;;;;11.70;6.33;;;;;;;;;;5080205;28;20059;-76
2023/10/30 06:00:38;;;;;;;13.73;6.60;;;;;;;;;;5097050;28;20492;-76
2023/10/30 06:03:06;;;;;;;14.03;7.30;;;;;;;;;;5080215;28;20031;-75
2023/10/30 06:05:32;;;;;;;14.47;6.50;;;;;;;;;;5079632;28;20048;-76
2023/10/30 06:07:58;;;;;;;13.93;6.40;;;;;;;;;;5079940;28;20031;-76
2023/10/30 06:10:23;;;;;;;13.27;6.77;;;;;;;;;;5096757;28;20093;-75
2023/10/30 06:12:50;;;;;;;12.13;6.67;;;;;;;;;;5097526;28;20035;-75
2023/10/30 06:15:17;;;;;;;9.27;5.60;;;;;;;;;;5080314;28;20389;-76
2023/10/30 06:17:42;;;;;;;13.23;6.03;;;;;;;;;;5079908;28;20035;-75
2023/10/30 06:20:09;;;;;;;10.87;5.57;;;;;;;;;;5079765;28;20031;-76
2023/10/30 06:22:35;;;;;;;13.57;6.00;;;;;;;;;;5079898;28;20050;-76
2023/10/30 06:25:01;;;;;;;8.87;5.90;;;;;;;;;;5096496;28;20031;-75
2023/10/30 06:27:32;;;;;;;12.20;6.70;;;;;;;;;;5096946;28;20032;-75
2023/10/30 06:29:58;;;;;;;11.37;5.97;;;;;;;;;;5079591;28;20404;-74
2023/10/30 06:32:24;;;;;;;12.93;6.77;;;;;;;;;;5096300;28;20043;-75
2023/10/30 06:34:49;;;;;;;11.50;5.60;;;;;;;;;;5096352;28;20541;-74
2023/10/30 06:37:15;;;;;;;12.73;6.50;;;;;;;;;;5079467;28;20035;-75
2023/10/30 06:39:42;;;;;;;12.93;6.10;;;;;;;;;;5079626;28;20035;-75
2023/10/30 06:42:09;;;;;;;13.17;6.50;;;;;;;;;;5079393;28;20127;-75
2023/10/30 06:44:35;;;;;;;11.27;6.07;;;;;;;;;;5079616;28;20063;-74
2023/10/30 06:47:03;;;;;;;10.07;6.10;;;;;;;;;;5096142;28;20074;-74
2023/10/30 06:49:29;;;;;;;10.77;6.17;;;;;;;;;;5096029;28;20043;-74
2023/10/30 06:51:56;;;;;;;13.70;6.50;;;;;;;;;;5079025;28;20035;-74
2023/10/30 06:54:23;;;;;;;13.23;5.87;;;;;;;;;;5079456;28;20033;-74
2023/10/30 06:56:48;;;;;;;10.00;5.83;;;;;;;;;;5054044;28;20044;-75
2023/10/30 06:59:15;;;;;;;13.93;5.77;;;;;;;;;;5021685;28;20053;-76
2023/10/30 07:01:43;;;;;;;9.40;5.90;;;;;;;;;;5039468;28;20044;-76
2023/10/30 07:04:10;;;;;;;9.87;5.70;;;;;;;;;;4999362;28;20037;-78
2023/10/30 07:06:38;;;;;;;15.30;6.10;;;;;;;;;;4959883;28;20251;-77
2023/10/30 07:09:06;;;;;;;9.33;5.73;;;;;;;;;;4946348;28;20055;-77
2023/10/30 07:11:34;;;;;;;10.55;5.50;;;;;;;;;;4928337;28;20493;-77
2023/10/30 07:14:04;;;;;;;9.73;5.50;;;;;;;;;;4924754;28;20046;-75
2023/10/30 07:16:30;;;;;;;10.93;6.27;;;;;;;;;;4939355;28;20117;-74
2023/10/30 07:18:56;;;;;;;10.13;5.67;;;;;;;;;;4940277;28;20142;-75
2023/10/30 07:21:22;;;;;;;10.23;5.37;;;;;;;;;;4924533;28;20366;-75
2023/10/30 07:23:47;;;;;;;9.77;5.50;;;;;;;;;;4956145;28;20049;-76
2023/10/30 07:26:21;;;;;;;10.97;6.53;;;;;;;;;;4940355;28;20047;-76
2023/10/30 07:28:49;;;;;;;10.80;6.47;;;;;;;;;;4974435;28;20116;-77
2023/10/30 07:31:20;;;;;;;10.67;6.63;;;;;;;;;;4944208;28;20047;-77
2023/10/30 07:33:46;;;;;;;12.07;6.10;;;;;;;;;;4972345;28;20054;-76
2023/10/30 07:36:12;;;;;;;13.93;6.77;;;;;;;;;;4961623;28;20050;-75
2023/10/30 07:38:38;;;;;;;13.63;7.37;;;;;;;;;;5017888;28;20048;-75
2023/10/30 07:41:05;;;;;;;13.57;7.40;;;;;;;;;;5037528;28;20028;-76
2023/10/30 07:43:33;;;;;;;15.63;7.03;;;;;;;;;;5037681;28;20048;-76
2023/10/30 07:45:59;;;;;;;13.50;7.03;;;;;;;;;;5021035;28;20040;-74
2023/10/30 07:48:26;;;;;;;13.33;6.83;;;;;;;;;;5033814;28;20076;-75
2023/10/30 07:50:53;;;;;;;14.40;7.27;;;;;;;;;;5001011;28;20053;-74
2023/10/30 07:53:19;;;;;;;13.30;7.63;;;;;;;;;;5033908;28;20048;-75
2023/10/30 07:55:46;;;;;;;17.43;7.83;;;;;;;;;;5001104;28;20091;-75
2023/10/30 07:58:12;;;;;;;16.07;8.37;;;;;;;;;;5000919;28;20052;-75
2023/10/30 08:00:39;;;;;;;16.97;8.67;;;;;;;;;;5017316;28;20118;-75
2023/10/30 08:03:05;;;;;;;15.30;7.77;;;;;;;;;;5000877;28;20051;-74
2023/10/30 08:05:32;;;;;;;13.03;6.60;;;;;;;;;;5066532;28;20051;-74
2023/10/30 08:07:58;;;;;;;13.27;7.47;;;;;;;;;;5093591;28;20048;-74
2023/10/30 08:10:24;;;;;;;16.20;7.87;;;;;;;;;;5076982;28;20044;-73
2023/10/30 08:12:51;;;;;;;14.30;7.57;;;;;;;;;;5059931;28;20043;-74
2023/10/30 08:15:18;;;;;;;15.03;7.80;;;;;;;;;;5060028;28;20044;-74
2023/10/30 08:17:43;;;;;;;17.03;8.40;;;;;;;;;;5076384;28;20037;-76
2023/10/30 08:20:10;;;;;;;15.57;8.57;;;;;;;;;;5091024;28;20031;-74
2023/10/30 08:22:37;;;;;;;15.73;7.40;;;;;;;;;;5094405;28;20414;-74
2023/10/30 08:25:03;;;;;;;19.30;7.43;;;;;;;;;;5077730;28;20062;-73
2023/10/30 08:27:33;;;;;;;15.43;8.30;;;;;;;;;;5079396;28;20470;-74
2023/10/30 08:30:00;;;;;;;15.93;7.87;;;;;;;;;;5081806;28;20055;-73
2023/10/30 08:32:30;;;;;;;17.17;9.10;;;;;;;;;;5082931;28;20039;-73
2023/10/30 08:34:58;;;;;;;18.10;9.10;;;;;;;;;;5081501;28;20503;-74
2023/10/30 08:37:24;;;;;;;17.00;9.40;;;;;;;;;;5081596;28;20035;-74
2023/10/30 08:39:49;;;;;;;22.27;9.43;;;;;;;;;;5081527;28;20397;-73
2023/10/30 08:42:15;;;;;;;17.77;8.63;;;;;;;;;;5081862;28;20031;-77
2023/10/30 08:44:41;;;;;;;17.27;8.77;;;;;;;;;;5082157;28;20038;-73
2023/10/30 08:47:10;;;;;;;20.70;10.20;;;;;;;;;;5098279;28;20473;-76
2023/10/30 08:49:35;;;;;;;19.63;8.97;;;;;;;;;;5082248;28;20059;-75
2023/10/30 08:52:02;;;;;;;19.00;8.23;;;;;;;;;;5082311;28;20412;-73
2023/10/30 08:54:28;;;;;;;18.00;8.50;;;;;;;;;;5082068;28;20031;-72
2023/10/30 08:56:58;;;;;;;19.08;9.27;;;;;;;;;;5116998;28;20047;-73
2023/10/30 08:59:27;;;;;;;20.83;8.57;;;;;;;;;;5099699;28;20047;-73
2023/10/30 09:01:53;;;;;;;27.03;9.37;;;;;;;;;;5082068;28;20036;-77
2023/10/30 09:04:19;;;;;;;18.40;8.50;;;;;;;;;;5081366;28;20127;-74
2023/10/30 09:06:45;;;;;;;20.43;9.80;;;;;;;;;;5098129;28;20060;-73
2023/10/30 09:09:11;;;;;;;17.87;9.17;;;;;;;;;;5064592;28;20046;-74
2023/10/30 09:11:39;;;;;;;22.93;9.73;;;;;;;;;;5081362;28;20424;-73
2023/10/30 09:14:06;;;;;;;22.77;11.57;;;;;;;;;;5080916;28;20027;-74
2023/10/30 09:16:31;;;;;;;18.90;10.07;;;;;;;;;;5080835;28;20039;-74
2023/10/30 09:18:59;;;;;;;20.13;9.63;;;;;;;;;;5080770;28;20035;-73
2023/10/30 09:21:24;;;;;;;17.97;10.37;;;;;;;;;;5097539;28;20249;-74
2023/10/30 09:23:50;;;;;;;18.53;9.57;;;;;;;;;;5080666;28;20082;-75
2023/10/30 09:26:16;;;;;;;20.13;9.80;;;;;;;;;;5081015;28;20035;-74
2023/10/30 09:28:42;;;;;;;16.40;8.67;;;;;;;;;;5081067;28;20496;-74
2023/10/30 09:31:07;;;;;;;16.93;8.53;;;;;;;;;;5080673;28;20044;-74
2023/10/30 09:33:33;;;;;;;19.47;8.80;;;;;;;;;;5080526;28;20247;-74
2023/10/30 09:35:59;;;;;;;14.50;8.30;;;;;;;;;;5097242;28;20514;-74
2023/10/30 09:38:25;;;;;;;19.37;9.00;;;;;;;;;;5080066;28;20126;-74
2023/10/30 09:41:12;;;;;;;17.53;9.27;;;;;;;;;;5079578;28;20043;-74
2023/10/30 09:43:38;;;;;;;20.93;9.07;;;;;;;;;;5096974;27;20035;-74
2023/10/30 09:46:10;;;;;;;18.37;9.07;;;;;;;;;;5080432;28;20509;-74
2023/10/30 09:48:36;;;;;;;20.20;8.55;;;;;;;;;;5080280;28;20036;-74
2023/10/30 09:51:03;;;;;;;19.20;8.63;;;;;;;;;;5080215;28;20058;-74
2023/10/30 09:53:29;;;;;;;20.73;8.73;;;;;;;;;;5079982;28;20028;-74
2023/10/30 09:55:56;;;;;;;18.63;8.87;;;;;;;;;;5079990;28;20036;-73
2023/10/30 09:58:23;;;;;;;26.90;9.37;;;;;;;;;;5080088;28;20040;-74
2023/10/30 10:00:49;;;;;;;18.43;8.10;;;;;;;;;;5080182;28;20113;-73
2023/10/30 10:03:14;;;;;;;17.87;8.50;;;;;;;;;;5079986;28;20043;-74
2023/10/30 10:05:41;;;;;;;18.40;9.00;;;;;;;;;;5096567;28;20470;-73
2023/10/30 10:08:07;;;;;;;25.67;8.73;;;;;;;;;;5080006;28;20035;-73
2023/10/30 10:10:52;;;;;;;19.50;9.57;;;;;;;;;;5062872;28;20516;-73
2023/10/30 10:13:18;;;;;;;22.53;9.77;;;;;;;;;;5080048;28;20028;-72
2023/10/30 10:15:44;;;;;;;22.57;9.13;;;;;;;;;;5079657;28;20426;-72
2023/10/30 10:18:21;;;;;;;24.03;9.23;;;;;;;;;;5096832;28;20133;-73
2023/10/30 10:21:00;;;;;;;17.83;9.43;;;;;;;;;;5079881;28;20070;-72
2023/10/30 10:23:31;;;;;;;23.07;9.53;;;;;;;;;;5079725;28;20043;-73
2023/10/30 10:25:58;;;;;;;25.80;10.00;;;;;;;;;;5097012;28;20031;-73
2023/10/30 10:28:24;;;;;;;19.80;9.67;;;;;;;;;;5080129;28;20453;-72
2023/10/30 10:30:52;;;;;;;22.03;10.13;;;;;;;;;;5096859;28;20074;-72
2023/10/30 10:33:18;;;;;;;23.07;10.40;;;;;;;;;;5080070;28;20101;-72
2023/10/30 10:35:44;;;;;;;23.00;10.33;;;;;;;;;;5096536;28;20447;-72
2023/10/30 10:38:13;;;;;;;25.97;11.80;;;;;;;;;;5096633;28;20038;-72
2023/10/30 10:40:39;;;;;;;28.83;11.23;;;;;;;;;;5079946;28;20142;-72
2023/10/30 10:43:06;;;;;;;22.53;10.60;;;;;;;;;;5114090;28;20088;-72
2023/10/30 10:45:32;;;;;;;24.43;11.07;;;;;;;;;;5080184;28;20134;-72
2023/10/30 10:47:58;;;;;;;23.23;10.27;;;;;;;;;;5079407;28;20096;-73
2023/10/30 10:50:23;;;;;;;20.73;10.30;;;;;;;;;;5078927;28;20489;-73
2023/10/30 10:52:53;;;;;;;27.17;10.73;;;;;;;;;;5075368;28;20138;-73
2023/10/30 10:55:21;;;;;;;24.93;9.97;;;;;;;;;;5075304;28;20138;-73
2023/10/30 10:57:52;;;;;;;23.03;10.70;;;;;;;;;;5058186;28;20139;-73
2023/10/30 11:00:40;;;;;;;23.30;10.37;;;;;;;;;;5090553;28;20051;-73
2023/10/30 11:03:07;;;;;;;19.60;9.73;;;;;;;;;;5058132;28;20032;-73
2023/10/30 11:05:34;;;;;;;22.17;10.63;;;;;;;;;;5057878;28;20056;-73
2023/10/30 11:08:06;;;;;;;22.07;10.90;;;;;;;;;;5074653;28;20032;-74
2023/10/30 11:10:39;;;;;;;20.23;10.23;;;;;;;;;;5058116;28;20083;-73
2023/10/30 11:13:24;;;;;;;24.23;10.73;;;;;;;;;;5057952;28;20099;-73
2023/10/30 11:15:59;;;;;;;26.17;10.90;;;;;;;;;;5042123;28;20363;-72
2023/10/30 11:18:26;;;;;;;24.23;11.43;;;;;;;;;;5058013;28;20070;-71
2023/10/30 11:21:16;;;;;;;24.87;10.97;;;;;;;;;;5093078;28;20036;-72
2023/10/30 11:23:44;;;;;;;31.87;13.43;;;;;;;;;;5074553;28;20092;-72
2023/10/30 11:26:11;;;;;;;25.30;11.57;;;;;;;;;;5041054;28;20054;-73
2023/10/30 11:28:37;;;;;;;23.93;11.73;;;;;;;;;;5074018;28;20040;-73
2023/10/30 11:31:09;;;;;;;33.77;13.63;;;;;;;;;;5105089;28;20059;-73
2023/10/30 11:33:35;;;;;;;26.07;11.83;;;;;;;;;;5078368;28;20031;-72
2023/10/30 11:36:17;;;;;;;29.80;13.07;;;;;;;;;;5095258;28;20481;-71
2023/10/30 11:38:52;;;;;;;29.80;13.13;;;;;;;;;;5095792;28;20024;-72
2023/10/30 11:41:18;;;;;;;31.83;12.90;;;;;;;;;;5085321;28;20527;-70
2023/10/30 11:43:46;;;;;;;29.67;12.53;;;;;;;;;;5111878;28;20088;-70
2023/10/30 11:46:13;;;;;;;26.27;11.77;;;;;;;;;;5090426;28;20040;-71
2023/10/30 11:48:40;;;;;;;30.67;12.33;;;;;;;;;;5073101;28;20099;-70
2023/10/30 11:51:07;;;;;;;25.03;11.33;;;;;;;;;;5040383;28;20044;-70
2023/10/30 11:53:33;;;;;;;25.73;11.97;;;;;;;;;;5089843;28;20054;-70
2023/10/30 11:55:59;;;;;;;26.23;11.63;;;;;;;;;;5090630;28;20471;-70
2023/10/30 11:58:27;;;;;;;27.20;12.67;;;;;;;;;;5056019;28;20462;-70
2023/10/30 12:00:52;;;;;;;27.57;11.87;;;;;;;;;;5090527;28;20027;-70
2023/10/30 12:03:21;;;;;;;31.00;12.97;;;;;;;;;;5089589;28;20040;-70
2023/10/30 12:05:48;;;;;;;28.40;12.83;;;;;;;;;;5089828;28;20066;-70
2023/10/30 12:08:14;;;;;;;26.48;12.52;;;;;;;;;;5072191;28;20835;-71
2023/10/30 12:10:40;;;;;;;30.50;13.23;;;;;;;;;;5072567;28;20105;-71
2023/10/30 12:13:07;;;;;;;28.00;11.98;;;;;;;;;;5070767;28;20040;-70
2023/10/30 12:15:34;;;;;;;26.47;12.37;;;;;;;;;;5072018;28;20131;-69
2023/10/30 12:18:00;;;;;;;24.63;11.35;;;;;;;;;;5055397;28;20416;-70
2023/10/30 12:20:25;;;;;;;27.98;12.57;;;;;;;;;;5054836;28;20039;-70
2023/10/30 12:22:53;;;;;;;28.10;12.07;;;;;;;;;;5055074;28;20051;-70
2023/10/30 12:25:19;;;;;;;32.10;12.48;;;;;;;;;;5071399;28;20089;-70
2023/10/30 12:27:50;;;;;;;27.17;12.35;;;;;;;;;;5070944;28;20113;-70
2023/10/30 12:30:17;;;;;;;22.93;10.43;;;;;;;;;;5038180;28;20055;-70
2023/10/30 12:32:43;;;;;;;20.63;10.68;;;;;;;;;;5071278;28;20055;-71
2023/10/30 12:35:09;;;;;;;21.98;11.35;;;;;;;;;;5070949;28;20088;-71
2023/10/30 12:37:37;;;;;;;24.75;11.50;;;;;;;;;;5071105;28;20097;-71
2023/10/30 12:40:07;;;;;;;23.60;11.98;;;;;;;;;;5071280;28;20466;-71
2023/10/30 12:42:38;;;;;;;28.63;12.60;;;;;;;;;;5053999;28;20113;-71
2023/10/30 12:45:07;;;;;;;34.72;13.13;;;;;;;;;;5072028;28;20147;-71
2023/10/30 12:47:35;;;;;;;26.30;11.70;;;;;;;;;;5072104;28;20046;-70
2023/10/30 12:50:05;;;;;;;26.85;12.98;;;;;;;;;;5088944;28;20055;-71
2023/10/30 12:52:31;;;;;;;26.55;12.82;;;;;;;;;;5105982;28;20055;-70
2023/10/30 12:54:59;;;;;;;26.15;12.40;;;;;;;;;;5055602;28;20478;-73
2023/10/30 12:57:25;;;;;;;28.70;13.45;;;;;;;;;;5089519;28;20039;-72
2023/10/30 12:59:52;;;;;;;23.50;12.32;;;;;;;;;;5089766;28;20040;-71
2023/10/30 13:02:19;;;;;;;33.65;14.70;;;;;;;;;;5089339;28;20480;-72
2023/10/30 13:04:45;;;;;;;28.35;13.30;;;;;;;;;;5072128;28;20043;-71
2023/10/30 13:07:13;;;;;;;28.67;14.07;;;;;;;;;;5070991;28;20071;-71
2023/10/30 13:09:39;;;;;;;37.92;16.20;;;;;;;;;;5054975;28;20043;-71
2023/10/30 13:12:05;;;;;;;36.20;16.80;;;;;;;;;;5071744;28;20473;-72
2023/10/30 13:14:33;;;;;;;30.17;15.30;;;;;;;;;;5089837;28;20036;-72
2023/10/30 13:16:59;;;;;;;32.28;14.77;;;;;;;;;;5059383;28;20080;-71
2023/10/30 13:19:25;;;;;;;32.03;16.45;;;;;;;;;;5059334;28;20035;-73
2023/10/30 13:21:54;;;;;;;34.10;14.38;;;;;;;;;;5093288;28;20043;-71
2023/10/30 13:24:20;;;;;;;30.33;15.32;;;;;;;;;;5059055;28;20147;-72
2023/10/30 13:26:46;;;;;;;31.98;15.23;;;;;;;;;;5059491;28;20059;-72
2023/10/30 13:29:13;;;;;;;36.92;15.68;;;;;;;;;;5093277;28;20465;-71
2023/10/30 13:31:39;;;;;;;27.77;13.75;;;;;;;;;;5059068;28;20130;-72
2023/10/30 13:34:05;;;;;;;26.85;13.73;;;;;;;;;;5093038;28;20044;-72
2023/10/30 13:36:31;;;;;;;28.08;12.63;;;;;;;;;;5059089;28;20043;-71
2023/10/30 13:38:56;;;;;;;21.38;12.32;;;;;;;;;;5075909;28;20040;-72
2023/10/30 13:41:23;;;;;;;31.30;13.85;;;;;;;;;;5076236;28;20024;-71
2023/10/30 13:43:50;;;;;;;27.98;13.63;;;;;;;;;;5075641;28;20528;-72
2023/10/30 13:46:16;;;;;;;27.27;13.32;;;;;;;;;;5076142;28;20059;-72
2023/10/30 13:48:42;;;;;;;25.98;12.95;;;;;;;;;;5092318;28;20032;-72
2023/10/30 13:51:07;;;;;;;25.63;12.13;;;;;;;;;;5058803;28;20039;-71
2023/10/30 13:53:33;;;;;;;28.10;13.05;;;;;;;;;;5059056;28;20495;-72
2023/10/30 13:56:00;;;;;;;29.60;14.52;;;;;;;;;;5059200;28;20035;-72
2023/10/30 13:58:26;;;;;;;31.60;16.52;;;;;;;;;;5075494;28;20062;-73
2023/10/30 14:00:53;;;;;;;42.78;16.98;;;;;;;;;;5053929;28;20032;-71
2023/10/30 14:03:19;;;;;;;29.60;14.75;;;;;;;;;;5037512;28;20122;-74
2023/10/30 14:05:45;;;;;;;26.75;13.65;;;;;;;;;;5020963;28;20072;-73
2023/10/30 14:08:13;;;;;;;29.63;14.85;;;;;;;;;;5021422;28;20043;-72
2023/10/30 14:10:40;;;;;;;26.70;13.70;;;;;;;;;;5021389;28;20056;-72
2023/10/30 14:13:06;;;;;;;22.33;12.38;;;;;;;;;;5036848;28;20055;-72
2023/10/30 14:15:33;;;;;;;24.88;12.30;;;;;;;;;;5037646;28;20036;-72
2023/10/30 14:17:59;;;;;;;24.30;12.60;;;;;;;;;;5020651;28;20044;-72
2023/10/30 14:20:24;;;;;;;30.83;12.32;;;;;;;;;;5020655;28;20048;-72
2023/10/30 14:22:50;;;;;;;32.63;15.85;;;;;;;;;;5020725;28;20037;-73
2023/10/30 14:25:16;;;;;;;24.83;14.00;;;;;;;;;;5020428;28;20043;-72
2023/10/30 14:27:42;;;;;;;32.53;18.95;;;;;;;;;;5020471;28;20028;-72
2023/10/30 14:30:09;;;;;;;40.38;18.45;;;;;;;;;;5037362;28;20040;-72